KBYG/BYG METAR and TAF weather

Enter ICAO airport designator
Station Type Date Time Source
KBYG METAR 2020/03/31 08:53 UTC NOAA

KBYG 310853Z AUTO 25012KT 10SM CLR 08/M09 A2984 RMK AO2 SLP076 T00831089 58013


Station Type Date Time Source
KBYG Decoded METAR 2020/03/31 08:53 UTC NOAA

BUFFALO JOHNSON COUNTY AIRPORT , WY, United States (KBYG) 44-23N 106-43W 1497M
Mar 31, 2020 - 04:53 AM EDT / 2020.03.31 0853 UTC
Wind: from the WSW (250 degrees) at 14 MPH (12 KT):0
Visibility: 10 mile(s):0
Sky conditions: clear
Temperature: 46.9 F (8.3 C)
Dew Point: 16.0 F (-8.9 C)
Relative Humidity: 28%
Pressure (altimeter): 29.84 in. Hg (1010 hPa)
Pressure tendency: 0.04 inches (1.3 hPa) lower than three hours ago
ob: KBYG 310853Z AUTO 25012KT 10SM CLR 08/M09 A2984 RMK AO2 SLP076 T00831089 58013
cycle: 9

Station Type Date Time Source
KBYG TAF UTC NOAA

Error!

Example: see airport list